Time;durP1;ratioP1;P1;durP2;ratioP2;P2;SDS_P1;SDS_P2;PMS_P1;PMS_P2;Temp;Humidity;BMP_temperature;BMP_pressure;BME280_temperature;BME280_humidity;BME280_pressure;Samples;Min_cycle;Max_cycle;Signal;HPM_P1;HPM_P2
2022/09/04 00:00:05;;;;;;;6.22;2.60;;;;;;;;;;5055890;28;20036;-49
2022/09/04 00:03:03;;;;;;;6.00;2.40;;;;;;;;;;5053152;28;20064;-46
2022/09/04 00:05:35;;;;;;;11.73;4.22;;;;;;;;;;5057412;28;20511;-48
2022/09/04 00:08:10;;;;;;;4.15;2.10;;;;;;;;;;5034965;28;20697;-48
2022/09/04 00:11:03;;;;;;;6.47;2.47;;;;;;;;;;5053691;28;20037;-51
2022/09/04 00:13:37;;;;;;;8.50;2.97;;;;;;;;;;5056605;28;20040;-47
2022/09/04 00:16:43;;;;;;;5.07;2.47;;;;;;;;;;5057286;28;20053;-49
2022/09/04 00:19:15;;;;;;;5.85;2.22;;;;;;;;;;5010018;28;20042;-48
2022/09/04 00:21:49;;;;;;;;;;;;;;;;;;5015348;28;20490;-48
2022/09/04 00:24:18;;;;;;;5.38;2.38;;;;;;;;;;5010701;28;20295;-52
2022/09/04 00:27:12;;;;;;;5.97;2.30;;;;;;;;;;5008006;28;20038;-49
2022/09/04 00:29:44;;;;;;;3.83;2.42;;;;;;;;;;5009239;28;20518;-49
2022/09/04 00:32:23;;;;;;;4.72;2.80;;;;;;;;;;5017047;28;20033;-45
2022/09/04 00:35:23;;;;;;;5.20;2.50;;;;;;;;;;5009599;28;20042;-49
2022/09/04 00:37:57;;;;;;;6.72;2.88;;;;;;;;;;5007575;28;20033;-50
2022/09/04 00:40:38;;;;;;;12.82;2.80;;;;;;;;;;5005531;28;20116;-49
2022/09/04 00:43:35;;;;;;;5.70;2.70;;;;;;;;;;5006165;28;20528;-51
2022/09/04 00:46:51;;;;;;;3.80;2.20;;;;;;;;;;4995844;28;20050;-48
2022/09/04 00:49:44;;;;;;;9.77;2.95;;;;;;;;;;5000487;28;20037;-49
2022/09/04 00:52:28;;;;;;;7.63;2.40;;;;;;;;;;5007993;28;20100;-47
2022/09/04 00:55:30;;;;;;;4.10;2.60;;;;;;;;;;5052463;28;20035;-47
2022/09/04 00:58:16;;;;;;;4.25;2.10;;;;;;;;;;5051716;28;20035;-51
2022/09/04 01:00:46;;;;;;;4.72;2.15;;;;;;;;;;5057709;28;20139;-53
2022/09/04 01:03:49;;;;;;;2.67;2.00;;;;;;;;;;5057834;28;20098;-50
2022/09/04 01:06:34;;;;;;;6.38;2.38;;;;;;;;;;5053518;28;20032;-50
2022/09/04 01:09:41;;;;;;;5.53;2.55;;;;;;;;;;5054435;28;20055;-49
2022/09/04 01:12:25;;;;;;;7.60;3.10;;;;;;;;;;5055157;28;20085;-46
2022/09/04 01:15:13;;;;;;;5.82;2.00;;;;;;;;;;5052105;28;20473;-51
2022/09/04 01:18:00;;;;;;;5.18;2.42;;;;;;;;;;5054931;28;20494;-51
2022/09/04 01:20:50;;;;;;;5.35;2.20;;;;;;;;;;5057350;28;20723;-46
2022/09/04 01:23:23;;;;;;;6.55;2.47;;;;;;;;;;5060456;28;20067;-48
2022/09/04 01:26:12;;;;;;;6.65;3.28;;;;;;;;;;5053365;28;20072;-46
2022/09/04 01:28:47;;;;;;;5.78;2.30;;;;;;;;;;5049358;28;20540;-52
2022/09/04 01:31:36;;;;;;;4.53;2.22;;;;;;;;;;5054741;28;20091;-47
2022/09/04 01:34:34;;;;;;;3.75;2.33;;;;;;;;;;5058886;28;20044;-48
2022/09/04 01:37:40;;;;;;;7.45;2.70;;;;;;;;;;5059326;28;20060;-51
2022/09/04 01:40:20;;;;;;;4.75;2.08;;;;;;;;;;5056412;28;20059;-49
2022/09/04 01:42:52;;;;;;;5.97;2.28;;;;;;;;;;5059566;28;20111;-49
2022/09/04 01:45:32;;;;;;;6.13;2.53;;;;;;;;;;5057162;28;20040;-49
2022/09/04 01:48:02;;;;;;;4.00;2.38;;;;;;;;;;5052377;28;20036;-47
2022/09/04 01:50:31;;;;;;;3.78;2.03;;;;;;;;;;5059911;28;20040;-48
2022/09/04 01:53:13;;;;;;;10.10;2.78;;;;;;;;;;5060152;28;20033;-52
2022/09/04 01:55:48;;;;;;;8.05;2.45;;;;;;;;;;5051392;28;20389;-51
2022/09/04 01:58:24;;;;;;;6.28;2.17;;;;;;;;;;5054668;28;20021;-48
2022/09/04 02:00:59;;;;;;;3.65;2.28;;;;;;;;;;5050199;28;20035;-49
2022/09/04 02:03:45;;;;;;;7.45;2.65;;;;;;;;;;5056945;28;20477;-45
2022/09/04 02:06:32;;;;;;;8.55;2.05;;;;;;;;;;5054291;28;20032;-49
2022/09/04 02:09:16;;;;;;;6.50;2.22;;;;;;;;;;5044422;28;20033;-47
2022/09/04 02:11:52;;;;;;;9.07;2.35;;;;;;;;;;5053737;28;20032;-50
2022/09/04 02:14:27;;;;;;;4.80;2.38;;;;;;;;;;5054532;28;20116;-47
2022/09/04 02:17:01;;;;;;;8.30;2.55;;;;;;;;;;5058111;28;20111;-49
2022/09/04 02:19:39;;;;;;;4.75;2.30;;;;;;;;;;5054029;28;20041;-48
2022/09/04 02:22:21;;;;;;;5.90;2.35;;;;;;;;;;5054649;28;20020;-48
2022/09/04 02:24:57;;;;;;;5.68;2.38;;;;;;;;;;5053032;28;20558;-49
2022/09/04 02:28:07;;;;;;;7.35;2.20;;;;;;;;;;5051208;28;20461;-46
2022/09/04 02:30:47;;;;;;;6.28;2.55;;;;;;;;;;5033444;28;20104;-48
2022/09/04 02:33:39;;;;;;;12.57;2.75;;;;;;;;;;5043091;28;20115;-45
2022/09/04 02:36:16;;;;;;;2.92;2.17;;;;;;;;;;5051262;28;20556;-44
2022/09/04 02:38:52;;;;;;;3.97;2.00;;;;;;;;;;5056592;28;20116;-48
2022/09/04 02:41:40;;;;;;;3.03;2.17;;;;;;;;;;5055147;28;20033;-50
2022/09/04 02:44:33;;;;;;;5.35;2.00;;;;;;;;;;5054214;28;20041;-47
2022/09/04 02:47:36;;;;;;;5.13;2.20;;;;;;;;;;5049196;28;20040;-47
2022/09/04 02:50:38;;;;;;;4.55;2.17;;;;;;;;;;5055667;28;20036;-48
2022/09/04 02:53:21;;;;;;;4.88;1.90;;;;;;;;;;5035980;28;20037;-47
2022/09/04 02:56:07;;;;;;;4.85;2.38;;;;;;;;;;5032616;28;20044;-50
2022/09/04 02:58:54;;;;;;;10.05;2.50;;;;;;;;;;5036313;28;20052;-46
2022/09/04 03:01:30;;;;;;;6.70;2.30;;;;;;;;;;5049381;28;20128;-52
2022/09/04 03:04:14;;;;;;;6.07;2.28;;;;;;;;;;5052008;28;20485;-46
2022/09/04 03:07:09;;;;;;;7.03;2.42;;;;;;;;;;5052493;28;20025;-49
2022/09/04 03:10:03;;;;;;;5.90;1.98;;;;;;;;;;5047959;28;20050;-51
2022/09/04 03:13:09;;;;;;;6.32;2.30;;;;;;;;;;5047190;28;20041;-52
2022/09/04 03:15:56;;;;;;;5.28;2.10;;;;;;;;;;4992265;28;20058;-49
2022/09/04 03:18:52;;;;;;;5.60;2.35;;;;;;;;;;5010903;28;20555;-48
2022/09/04 03:21:28;;;;;;;2.83;2.10;;;;;;;;;;4991758;28;20116;-49
2022/09/04 03:24:21;;;;;;;4.00;2.00;;;;;;;;;;4994743;28;20080;-51
2022/09/04 03:27:11;;;;;;;4.85;2.00;;;;;;;;;;4993465;28;20026;-47
2022/09/04 03:30:00;;;;;;;4.22;2.05;;;;;;;;;;4995368;28;20034;-48
2022/09/04 03:32:33;;;;;;;3.80;1.77;;;;;;;;;;4991955;28;20744;-48
2022/09/04 03:35:34;;;;;;;9.32;2.10;;;;;;;;;;4992693;28;20466;-48
2022/09/04 03:38:35;;;;;;;3.85;2.08;;;;;;;;;;4958271;28;20053;-52
2022/09/04 03:41:28;;;;;;;6.30;2.17;;;;;;;;;;4953796;28;20034;-52
2022/09/04 03:44:11;;;;;;;5.85;2.25;;;;;;;;;;4953655;28;20038;-47
2022/09/04 03:46:51;;;;;;;;;;;;;;;;;;4956466;28;20498;-52
2022/09/04 03:49:37;;;;;;;7.22;2.00;;;;;;;;;;4954276;28;19917;-48
2022/09/04 03:52:31;;;;;;;6.13;2.00;;;;;;;;;;4985751;28;20042;-46
2022/09/04 03:55:15;;;;;;;3.67;2.33;;;;;;;;;;4989913;28;20030;-48
2022/09/04 03:57:57;;;;;;;6.97;2.28;;;;;;;;;;4986909;28;20504;-52
2022/09/04 04:00:23;;;;;;;5.60;2.33;;;;;;;;;;4989690;28;20034;-50
2022/09/04 04:03:13;;;;;;;4.20;1.90;;;;;;;;;;4993107;28;20552;-50
2022/09/04 04:05:41;;;;;;;3.97;1.77;;;;;;;;;;4993409;28;20038;-48
2022/09/04 04:08:28;;;;;;;5.43;2.20;;;;;;;;;;4990510;28;23423;-46
2022/09/04 04:11:19;;;;;;;1.92;1.60;;;;;;;;;;4994668;28;20041;-50
2022/09/04 04:14:25;;;;;;;2.45;1.80;;;;;;;;;;5054965;28;20043;-47
2022/09/04 04:16:58;;;;;;;4.72;2.03;;;;;;;;;;5057585;28;20078;-47
2022/09/04 04:19:35;;;;;;;4.93;1.40;;;;;;;;;;5055885;28;20117;-52
2022/09/04 04:22:16;;;;;;;3.72;2.00;;;;;;;;;;5052248;28;20048;-47
2022/09/04 04:24:41;;;;;;;4.20;1.80;;;;;;;;;;5059871;28;20119;-45
2022/09/04 04:27:35;;;;;;;1.88;1.67;;;;;;;;;;5039153;28;20623;-48
2022/09/04 04:30:09;;;;;;;2.35;1.45;;;;;;;;;;5051766;28;20025;-47
2022/09/04 04:32:55;;;;;;;2.13;1.60;;;;;;;;;;5057336;28;20031;-46
2022/09/04 04:35:54;;;;;;;2.35;1.50;;;;;;;;;;5038127;28;20405;-46
2022/09/04 04:39:02;;;;;;;4.28;1.50;;;;;;;;;;5058199;28;20052;-47
2022/09/04 04:42:05;;;;;;;2.38;1.52;;;;;;;;;;5060227;28;20095;-47
2022/09/04 04:48:08;;;;;;;3.55;1.27;;;;;;;;;;5053029;28;20090;-47
2022/09/04 04:50:49;;;;;;;3.20;1.50;;;;;;;;;;5059020;28;20025;-49
2022/09/04 04:53:29;;;;;;;1.30;1.17;;;;;;;;;;5056839;28;20036;-50
2022/09/04 04:56:28;;;;;;;1.50;1.40;;;;;;;;;;5055453;28;20052;-50
2022/09/04 04:59:05;;;;;;;1.40;1.30;;;;;;;;;;5053433;28;20047;-48
2022/09/04 05:01:43;;;;;;;1.35;1.25;;;;;;;;;;5048873;28;20112;-48
2022/09/04 05:04:49;;;;;;;3.03;1.40;;;;;;;;;;5052572;28;20060;-49
2022/09/04 05:07:30;;;;;;;4.95;1.30;;;;;;;;;;5056639;28;20533;-48
2022/09/04 05:10:20;;;;;;;1.50;1.35;;;;;;;;;;5054172;28;20039;-48
2022/09/04 05:13:10;;;;;;;5.50;1.35;;;;;;;;;;5046630;28;20098;-48
2022/09/04 05:15:55;;;;;;;2.05;1.30;;;;;;;;;;5041469;28;20033;-47
2022/09/04 05:18:43;;;;;;;6.20;1.23;;;;;;;;;;5049623;28;20370;-51
2022/09/04 05:21:21;;;;;;;2.42;1.55;;;;;;;;;;5054390;28;20029;-47
2022/09/04 05:24:01;;;;;;;2.75;1.38;;;;;;;;;;5056506;28;20039;-48
2022/09/04 05:26:46;;;;;;;4.07;1.30;;;;;;;;;;5054801;28;20032;-49
2022/09/04 05:29:32;;;;;;;3.63;1.40;;;;;;;;;;5055871;28;20040;-46
2022/09/04 05:32:11;;;;;;;1.77;1.30;;;;;;;;;;5056618;28;20382;-47
2022/09/04 05:35:15;;;;;;;1.60;1.17;;;;;;;;;;5050133;28;20360;-52
2022/09/04 05:37:49;;;;;;;2.60;1.63;;;;;;;;;;4989339;28;20566;-48
2022/09/04 05:40:29;;;;;;;2.17;1.20;;;;;;;;;;4996500;28;20034;-51
2022/09/04 05:42:58;;;;;;;3.20;1.30;;;;;;;;;;4991408;28;20472;-47
2022/09/04 05:45:56;;;;;;;5.05;1.35;;;;;;;;;;4990662;28;20038;-50
2022/09/04 05:48:29;;;;;;;3.88;1.35;;;;;;;;;;4994861;28;20038;-46
2022/09/04 05:51:28;;;;;;;4.95;1.40;;;;;;;;;;4996349;28;20100;-48
2022/09/04 05:54:13;;;;;;;2.22;1.50;;;;;;;;;;4994380;28;20065;-48
2022/09/04 05:56:53;;;;;;;4.45;1.33;;;;;;;;;;4994792;28;20061;-50
2022/09/04 05:59:43;;;;;;;1.55;1.08;;;;;;;;;;4995432;28;20045;-48
2022/09/04 06:02:39;;;;;;;2.25;1.20;;;;;;;;;;4998902;28;20026;-46
2022/09/04 06:05:44;;;;;;;4.40;1.33;;;;;;;;;;4994403;28;20038;-49
2022/09/04 06:08:37;;;;;;;1.88;1.20;;;;;;;;;;4994135;28;20038;-49
2022/09/04 06:11:41;;;;;;;5.95;1.38;;;;;;;;;;5008906;28;20036;-48
2022/09/04 06:14:17;;;;;;;1.45;1.27;;;;;;;;;;5053481;28;20032;-50
2022/09/04 06:17:04;;;;;;;3.63;1.90;;;;;;;;;;5051954;28;20307;-50
2022/09/04 06:19:48;;;;;;;1.50;1.40;;;;;;;;;;5054643;28;20024;-46
2022/09/04 06:22:29;;;;;;;5.68;1.40;;;;;;;;;;5056109;28;20025;-48
2022/09/04 06:25:03;;;;;;;5.18;1.80;;;;;;;;;;5047347;28;20040;-51
2022/09/04 06:27:35;;;;;;;3.95;1.60;;;;;;;;;;5052248;28;20033;-52
2022/09/04 06:30:09;;;;;;;2.53;1.23;;;;;;;;;;5051166;28;20493;-53
2022/09/04 06:33:08;;;;;;;2.38;1.23;;;;;;;;;;5057692;28;20033;-49
2022/09/04 06:36:14;;;;;;;1.98;1.40;;;;;;;;;;5053949;28;20108;-50
2022/09/04 06:38:55;;;;;;;1.55;1.38;;;;;;;;;;5050471;28;20028;-49
2022/09/04 06:41:34;;;;;;;3.70;1.63;;;;;;;;;;5052821;28;20032;-51
2022/09/04 06:44:06;;;;;;;2.97;1.40;;;;;;;;;;5048836;28;20119;-50
2022/09/04 06:46:37;;;;;;;1.27;1.20;;;;;;;;;;5050152;28;20029;-52
2022/09/04 06:49:21;;;;;;;2.67;1.50;;;;;;;;;;5058959;28;20063;-50
2022/09/04 06:52:18;;;;;;;3.22;1.25;;;;;;;;;;5048900;28;20032;-51
2022/09/04 06:54:59;;;;;;;2.90;1.30;;;;;;;;;;5047338;28;20085;-47
2022/09/04 06:57:25;;;;;;;3.95;1.30;;;;;;;;;;5051022;28;20045;-51
2022/09/04 06:59:58;;;;;;;2.22;1.40;;;;;;;;;;5052398;28;20033;-51
2022/09/04 07:02:33;;;;;;;3.95;1.50;;;;;;;;;;5048198;28;20037;-53
2022/09/04 07:05:10;;;;;;;1.20;1.10;;;;;;;;;;5058657;28;20032;-48
2022/09/04 07:07:51;;;;;;;3.03;1.55;;;;;;;;;;5056373;28;20025;-46
2022/09/04 07:10:23;;;;;;;2.13;1.27;;;;;;;;;;5050074;28;20051;-47
2022/09/04 07:12:59;;;;;;;3.65;1.20;;;;;;;;;;5061042;28;20057;-52
2022/09/04 07:15:43;;;;;;;1.80;1.30;;;;;;;;;;5050125;28;20036;-51
2022/09/04 07:18:29;;;;;;;3.50;1.40;;;;;;;;;;5046230;28;20021;-51
2022/09/04 07:21:53;;;;;;;3.72;1.55;;;;;;;;;;5055443;28;20025;-52
2022/09/04 07:24:25;;;;;;;1.40;1.30;;;;;;;;;;4976020;28;20050;-49
2022/09/04 07:27:14;;;;;;;3.90;1.60;;;;;;;;;;4989049;28;20035;-50
2022/09/04 07:29:49;;;;;;;6.63;2.15;;;;;;;;;;4988035;28;20035;-51
2022/09/04 07:32:16;;;;;;;5.47;1.90;;;;;;;;;;4993452;28;20026;-47
2022/09/04 07:35:00;;;;;;;3.38;1.50;;;;;;;;;;4994261;28;20042;-50
2022/09/04 07:37:35;;;;;;;5.13;1.50;;;;;;;;;;4985923;28;20113;-52
2022/09/04 07:40:17;;;;;;;6.25;1.50;;;;;;;;;;4986537;28;20532;-49
2022/09/04 07:42:54;;;;;;;5.82;1.80;;;;;;;;;;4987061;28;20260;-48
2022/09/04 07:45:28;;;;;;;2.05;1.30;;;;;;;;;;4995085;28;20038;-49
2022/09/04 07:48:04;;;;;;;4.93;1.38;;;;;;;;;;4982831;28;20047;-48
2022/09/04 07:50:38;;;;;;;4.35;1.65;;;;;;;;;;4990404;28;20034;-51
2022/09/04 07:53:37;;;;;;;5.13;1.52;;;;;;;;;;4989298;28;20038;-49
2022/09/04 07:56:21;;;;;;;2.33;1.52;;;;;;;;;;4986661;28;20110;-51
2022/09/04 07:58:58;;;;;;;5.07;1.83;;;;;;;;;;4982152;28;20068;-48
2022/09/04 08:01:52;;;;;;;6.60;1.92;;;;;;;;;;5047590;28;20040;-49
2022/09/04 08:04:26;;;;;;;4.32;1.95;;;;;;;;;;5046140;28;20063;-51
2022/09/04 08:06:57;;;;;;;3.35;1.63;;;;;;;;;;5055019;28;20056;-49
2022/09/04 08:10:00;;;;;;;2.90;1.73;;;;;;;;;;5054499;28;20031;-52
2022/09/04 08:12:55;;;;;;;5.00;1.75;;;;;;;;;;5049218;28;20489;-46
2022/09/04 08:15:57;;;;;;;4.50;1.73;;;;;;;;;;5053426;28;20078;-51
2022/09/04 08:18:40;;;;;;;5.50;1.95;;;;;;;;;;5054430;28;20036;-51
2022/09/04 08:21:25;;;;;;;4.72;1.67;;;;;;;;;;5056872;28;20029;-51
2022/09/04 08:24:25;;;;;;;5.70;1.58;;;;;;;;;;5053674;28;20677;-51
2022/09/04 08:27:24;;;;;;;8.15;1.90;;;;;;;;;;5044433;28;20060;-52
2022/09/04 08:30:13;;;;;;;5.55;2.10;;;;;;;;;;5051713;28;20040;-53
2022/09/04 08:32:57;;;;;;;6.13;2.05;;;;;;;;;;5053286;28;20040;-47
2022/09/04 08:35:25;;;;;;;7.90;2.13;;;;;;;;;;5052170;28;20034;-47
2022/09/04 08:38:10;;;;;;;7.05;1.95;;;;;;;;;;5052505;28;20062;-51
2022/09/04 08:40:45;;;;;;;2.58;1.52;;;;;;;;;;5048868;28;20657;-52
2022/09/04 08:43:19;;;;;;;7.18;2.28;;;;;;;;;;5055216;28;20064;-50
2022/09/04 08:46:16;;;;;;;4.28;1.75;;;;;;;;;;5056751;28;20055;-49
2022/09/04 08:48:57;;;;;;;8.55;2.30;;;;;;;;;;5055748;28;20052;-46
2022/09/04 08:51:51;;;;;;;4.03;2.03;;;;;;;;;;5053400;28;20099;-46
2022/09/04 08:54:27;;;;;;;6.47;2.15;;;;;;;;;;5056271;28;20040;-50
2022/09/04 08:56:56;;;;;;;5.40;2.10;;;;;;;;;;5056605;28;20550;-48
2022/09/04 08:59:40;;;;;;;6.40;2.40;;;;;;;;;;5037409;28;20029;-47
2022/09/04 09:02:27;;;;;;;5.13;2.15;;;;;;;;;;5054311;28;20104;-46
2022/09/04 09:05:30;;;;;;;7.65;2.58;;;;;;;;;;5041647;28;20171;-48
2022/09/04 09:08:08;;;;;;;10.57;2.45;;;;;;;;;;5051002;28;20097;-49
2022/09/04 09:10:46;;;;;;;9.02;2.50;;;;;;;;;;5058122;28;20053;-46
2022/09/04 09:14:00;;;;;;;4.10;2.00;;;;;;;;;;5052229;28;20480;-50
2022/09/04 09:16:31;;;;;;;5.65;2.40;;;;;;;;;;5016025;28;20041;-48
2022/09/04 09:19:36;;;;;;;7.80;2.42;;;;;;;;;;5014497;28;20041;-47
2022/09/04 09:22:09;;;;;;;6.43;2.38;;;;;;;;;;5015039;28;20064;-46
2022/09/04 09:25:10;;;;;;;8.48;2.30;;;;;;;;;;5013002;28;20133;-49
2022/09/04 09:28:00;;;;;;;5.43;2.08;;;;;;;;;;5014563;28;20577;-47
2022/09/04 09:30:53;;;;;;;12.15;3.05;;;;;;;;;;5018373;28;20054;-51
2022/09/04 09:33:31;;;;;;;11.82;2.25;;;;;;;;;;4977699;28;20578;-48
2022/09/04 09:36:33;;;;;;;6.90;2.08;;;;;;;;;;4988178;28;20619;-53
2022/09/04 09:39:17;;;;;;;5.35;2.33;;;;;;;;;;4985816;28;20125;-46
2022/09/04 09:42:04;;;;;;;8.40;2.67;;;;;;;;;;4985513;28;20038;-46
2022/09/04 09:44:45;;;;;;;11.48;2.42;;;;;;;;;;4987283;28;20057;-47
2022/09/04 09:47:29;;;;;;;6.38;2.10;;;;;;;;;;4984556;28;20045;-49
2022/09/04 09:50:07;;;;;;;12.13;3.03;;;;;;;;;;4984868;28;20499;-47
2022/09/04 09:52:51;;;;;;;12.23;2.70;;;;;;;;;;4992193;28;20125;-51
2022/09/04 09:55:47;;;;;;;10.57;2.50;;;;;;;;;;5004703;28;20034;-51
2022/09/04 09:58:29;;;;;;;11.77;2.40;;;;;;;;;;5004002;28;20073;-47
2022/09/04 10:00:58;;;;;;;8.65;2.38;;;;;;;;;;5001195;28;20052;-47
2022/09/04 10:03:27;;;;;;;9.60;2.75;;;;;;;;;;5005608;28;20599;-49
2022/09/04 10:06:40;;;;;;;7.68;2.33;;;;;;;;;;5022177;28;20112;-48
2022/09/04 10:09:38;;;;;;;8.45;2.47;;;;;;;;;;4945192;28;20036;-47
2022/09/04 10:12:27;;;;;;;10.15;3.38;;;;;;;;;;4934215;29;20035;-51
2022/09/04 10:15:15;;;;;;;7.53;2.50;;;;;;;;;;4932621;29;20039;-50
2022/09/04 10:17:46;;;;;;;7.80;2.70;;;;;;;;;;4939402;28;20122;-49
2022/09/04 10:20:20;;;;;;;14.05;2.33;;;;;;;;;;4938640;29;20043;-47
2022/09/04 10:23:04;;;;;;;7.72;2.58;;;;;;;;;;4936685;29;20072;-47
2022/09/04 10:25:47;;;;;;;8.35;2.47;;;;;;;;;;4943359;29;20043;-48
2022/09/04 10:28:40;;;;;;;6.45;2.20;;;;;;;;;;4938767;29;20701;-48
2022/09/04 10:31:43;;;;;;;11.38;3.05;;;;;;;;;;4937499;29;20047;-47
2022/09/04 10:34:43;;;;;;;8.88;2.85;;;;;;;;;;4935683;29;20069;-52
2022/09/04 10:37:34;;;;;;;8.18;2.53;;;;;;;;;;4940340;29;20086;-47
2022/09/04 10:43:11;;;;;;;8.50;2.63;;;;;;;;;;4936373;28;20582;-47
2022/09/04 10:45:37;;;;;;;9.98;2.33;;;;;;;;;;4991675;28;20041;-48
2022/09/04 10:48:16;;;;;;;8.00;2.78;;;;;;;;;;5016046;28;20626;-48
2022/09/04 10:50:45;;;;;;;8.10;2.60;;;;;;;;;;5054906;28;20023;-47
2022/09/04 10:53:41;;;;;;;8.35;2.85;;;;;;;;;;5050891;28;20029;-47
2022/09/04 10:56:27;;;;;;;5.72;2.38;;;;;;;;;;5041072;28;20053;-49
2022/09/04 10:59:23;;;;;;;6.90;2.58;;;;;;;;;;5051632;28;20084;-49
2022/09/04 11:01:58;;;;;;;9.07;2.40;;;;;;;;;;5052049;28;20380;-47
2022/09/04 11:05:01;;;;;;;10.45;3.00;;;;;;;;;;5058391;28;20041;-46
2022/09/04 11:07:40;;;;;;;5.60;2.13;;;;;;;;;;5054715;28;20033;-47
2022/09/04 11:10:05;;;;;;;10.50;2.58;;;;;;;;;;5051332;28;20052;-49
2022/09/04 11:13:06;;;;;;;8.07;2.70;;;;;;;;;;5056817;28;20060;-49
2022/09/04 11:16:04;;;;;;;7.93;2.40;;;;;;;;;;4976666;28;20110;-49
2022/09/04 11:19:19;;;;;;;7.80;2.42;;;;;;;;;;4976352;28;20053;-48
2022/09/04 11:22:07;;;;;;;9.88;2.70;;;;;;;;;;4918277;29;20063;-47
2022/09/04 11:24:53;;;;;;;9.13;2.75;;;;;;;;;;4922267;29;20073;-46
2022/09/04 11:27:37;;;;;;;11.68;3.00;;;;;;;;;;4916080;29;20119;-50
2022/09/04 11:30:19;;;;;;;7.63;2.60;;;;;;;;;;4918151;29;20152;-46
2022/09/04 11:33:06;;;;;;;10.02;3.30;;;;;;;;;;4921335;29;20372;-49
2022/09/04 11:35:50;;;;;;;7.18;2.45;;;;;;;;;;4916930;29;20123;-47
2022/09/04 11:38:42;;;;;;;6.28;2.55;;;;;;;;;;4916466;29;20051;-48
2022/09/04 11:41:37;;;;;;;11.02;2.45;;;;;;;;;;4924014;29;20206;-50
2022/09/04 11:44:13;;;;;;;6.72;2.55;;;;;;;;;;4915474;29;20160;-50
2022/09/04 11:47:02;;;;;;;8.25;2.45;;;;;;;;;;4921694;29;20087;-51
2022/09/04 11:49:57;;;;;;;7.43;2.58;;;;;;;;;;4941132;28;20063;-50
2022/09/04 11:52:39;;;;;;;6.32;2.22;;;;;;;;;;4970025;28;20031;-52
2022/09/04 11:55:21;;;;;;;4.60;2.40;;;;;;;;;;4973707;28;20050;-48
2022/09/04 11:58:35;;;;;;;10.95;2.47;;;;;;;;;;5025155;28;20052;-46
2022/09/04 12:01:22;;;;;;;5.10;2.22;;;;;;;;;;5056685;28;20065;-49
2022/09/04 12:04:00;;;;;;;4.97;2.00;;;;;;;;;;5055142;28;20044;-51
2022/09/04 12:06:35;;;;;;;5.05;2.33;;;;;;;;;;5049284;28;20118;-50
2022/09/04 12:09:21;;;;;;;6.85;2.25;;;;;;;;;;5058072;28;20021;-50
2022/09/04 12:12:09;;;;;;;5.85;2.20;;;;;;;;;;5057203;28;20044;-48
2022/09/04 12:14:43;;;;;;;8.48;2.38;;;;;;;;;;5051651;28;20120;-49
2022/09/04 12:17:36;;;;;;;6.80;2.40;;;;;;;;;;5057368;28;20028;-49
2022/09/04 12:20:35;;;;;;;6.70;2.17;;;;;;;;;;5056528;28;20082;-46
2022/09/04 12:23:01;;;;;;;7.32;2.33;;;;;;;;;;5052572;28;20469;-48
2022/09/04 12:26:04;;;;;;;7.53;2.42;;;;;;;;;;5052143;28;20033;-52
2022/09/04 12:28:48;;;;;;;5.22;2.00;;;;;;;;;;5058280;28;20120;-46
2022/09/04 12:31:35;;;;;;;5.72;2.38;;;;;;;;;;5055627;28;20020;-50
2022/09/04 12:34:10;;;;;;;6.57;2.00;;;;;;;;;;5056334;28;20039;-48
2022/09/04 12:36:39;;;;;;;7.25;2.38;;;;;;;;;;5050048;28;20036;-46
2022/09/04 12:39:49;;;;;;;6.63;2.03;;;;;;;;;;5058318;28;20112;-48
2022/09/04 12:42:36;;;;;;;6.53;2.90;;;;;;;;;;5047255;28;20026;-50
2022/09/04 12:45:01;;;;;;;7.18;3.08;;;;;;;;;;5055711;28;20070;-49
2022/09/04 12:47:41;;;;;;;6.47;2.28;;;;;;;;;;5052471;28;20029;-47
2022/09/04 12:50:40;;;;;;;10.90;2.50;;;;;;;;;;5051576;28;20044;-47
2022/09/04 12:53:25;;;;;;;13.88;2.50;;;;;;;;;;5050606;28;20049;-46
2022/09/04 12:56:25;;;;;;;3.72;2.10;;;;;;;;;;5050993;28;20885;-49
2022/09/04 12:59:06;;;;;;;5.97;2.53;;;;;;;;;;5041447;28;20512;-51
2022/09/04 13:01:41;;;;;;;6.57;2.47;;;;;;;;;;5047216;28;20033;-52
2022/09/04 13:04:12;;;;;;;9.00;2.30;;;;;;;;;;5047962;28;20127;-48
2022/09/04 13:07:10;;;;;;;5.72;2.20;;;;;;;;;;5059038;28;20026;-46
2022/09/04 13:10:00;;;;;;;10.45;2.80;;;;;;;;;;5054955;28;20409;-49
2022/09/04 13:12:35;;;;;;;6.32;2.85;;;;;;;;;;5054296;28;20044;-47
2022/09/04 13:15:39;;;;;;;7.97;2.78;;;;;;;;;;5058105;28;20547;-51
2022/09/04 13:18:14;;;;;;;6.50;2.50;;;;;;;;;;5047829;28;20483;-49
2022/09/04 13:21:24;;;;;;;7.00;2.10;;;;;;;;;;5050862;28;20517;-49
2022/09/04 13:24:10;;;;;;;11.63;2.75;;;;;;;;;;5056265;28;20081;-46
2022/09/04 13:27:14;;;;;;;6.63;2.17;;;;;;;;;;5058553;28;20044;-49
2022/09/04 13:30:00;;;;;;;8.10;2.42;;;;;;;;;;5053865;28;20037;-50
2022/09/04 13:32:38;;;;;;;8.77;2.33;;;;;;;;;;5038157;28;20041;-51
2022/09/04 13:35:12;;;;;;;4.72;2.10;;;;;;;;;;5055443;28;20433;-49
2022/09/04 13:37:44;;;;;;;8.18;2.53;;;;;;;;;;5059214;28;20064;-50
2022/09/04 13:40:28;;;;;;;10.93;2.60;;;;;;;;;;5050348;28;20082;-48
2022/09/04 13:43:15;;;;;;;8.63;2.72;;;;;;;;;;5056213;28;20032;-50
2022/09/04 13:45:54;;;;;;;10.07;2.55;;;;;;;;;;5046613;28;20086;-50
2022/09/04 13:48:41;;;;;;;6.13;2.22;;;;;;;;;;5057268;28;20029;-48
2022/09/04 13:51:29;;;;;;;7.03;2.70;;;;;;;;;;5047184;28;20033;-49
2022/09/04 13:54:04;;;;;;;11.65;2.88;;;;;;;;;;5051590;28;20068;-52
2022/09/04 13:56:41;;;;;;;10.15;2.88;;;;;;;;;;5055284;28;20068;-47
2022/09/04 13:59:09;;;;;;;12.85;2.70;;;;;;;;;;5053976;28;20032;-52
2022/09/04 14:01:44;;;;;;;9.40;2.95;;;;;;;;;;5060638;28;20029;-48
2022/09/04 14:04:37;;;;;;;10.38;2.25;;;;;;;;;;5059221;28;20037;-47
2022/09/04 14:07:17;;;;;;;7.38;2.10;;;;;;;;;;5057817;28;20579;-48
2022/09/04 14:09:46;;;;;;;8.40;2.75;;;;;;;;;;5054358;28;20024;-49
2022/09/04 14:12:20;;;;;;;6.68;2.70;;;;;;;;;;5057295;28;20482;-49
2022/09/04 14:14:58;;;;;;;7.97;2.20;;;;;;;;;;5051032;28;20025;-50
2022/09/04 14:17:37;;;;;;;5.65;2.30;;;;;;;;;;5054419;28;20038;-51
2022/09/04 14:20:11;;;;;;;11.30;2.67;;;;;;;;;;5045479;28;20024;-51
2022/09/04 14:22:48;;;;;;;6.85;2.72;;;;;;;;;;5052246;28;20427;-49
2022/09/04 14:25:41;;;;;;;6.90;2.80;;;;;;;;;;5052798;28;20089;-49
2022/09/04 14:28:54;;;;;;;10.30;2.35;;;;;;;;;;5050511;28;20041;-50
2022/09/04 14:31:54;;;;;;;8.32;2.70;;;;;;;;;;4998598;28;20035;-48
2022/09/04 14:34:36;;;;;;;6.55;2.38;;;;;;;;;;4939899;29;20746;-51
2022/09/04 14:37:35;;;;;;;14.00;3.10;;;;;;;;;;4934752;29;20043;-48
2022/09/04 14:40:13;;;;;;;6.68;2.22;;;;;;;;;;4931737;29;20090;-52
2022/09/04 14:42:50;;;;;;;10.10;2.15;;;;;;;;;;4935318;29;20417;-49
2022/09/04 14:45:52;;;;;;;8.55;2.50;;;;;;;;;;4928707;29;20127;-50
2022/09/04 14:48:22;;;;;;;5.80;2.53;;;;;;;;;;4932671;29;20130;-52
2022/09/04 14:50:52;;;;;;;13.45;2.63;;;;;;;;;;4936282;29;20677;-49
2022/09/04 14:53:25;;;;;;;6.68;2.13;;;;;;;;;;4938982;29;20024;-47
2022/09/04 14:56:06;;;;;;;9.60;2.53;;;;;;;;;;4932176;29;20079;-48
2022/09/04 14:59:22;;;;;;;10.88;2.83;;;;;;;;;;4939194;29;20047;-53
2022/09/04 15:02:16;;;;;;;11.93;2.58;;;;;;;;;;4911982;29;20106;-49
2022/09/04 15:04:50;;;;;;;8.98;2.38;;;;;;;;;;4935217;29;20043;-48
2022/09/04 15:07:28;;;;;;;11.02;2.40;;;;;;;;;;4936546;29;20053;-47
2022/09/04 15:10:15;;;;;;;6.30;2.38;;;;;;;;;;4938332;28;20058;-49
2022/09/04 15:12:49;;;;;;;6.43;2.25;;;;;;;;;;4994665;28;20084;-48
2022/09/04 15:15:38;;;;;;;7.05;2.10;;;;;;;;;;4994093;28;20038;-49
2022/09/04 15:18:28;;;;;;;9.73;2.55;;;;;;;;;;4988160;28;20027;-48
2022/09/04 15:21:08;;;;;;;9.38;2.45;;;;;;;;;;4994336;28;20041;-51
2022/09/04 15:23:40;;;;;;;7.05;2.45;;;;;;;;;;4986832;28;20117;-50
2022/09/04 15:26:20;;;;;;;9.88;2.75;;;;;;;;;;4994522;28;20038;-48
2022/09/04 15:28:53;;;;;;;8.85;2.20;;;;;;;;;;4993143;28;20048;-48
2022/09/04 15:31:30;;;;;;;7.00;2.42;;;;;;;;;;4984858;28;20042;-52
2022/09/04 15:34:21;;;;;;;9.23;2.92;;;;;;;;;;4992675;28;20482;-48
2022/09/04 15:36:47;;;;;;;5.55;2.25;;;;;;;;;;5045160;28;20049;-48
2022/09/04 15:39:31;;;;;;;9.43;2.65;;;;;;;;;;5051745;28;20400;-49
2022/09/04 15:41:58;;;;;;;7.53;2.08;;;;;;;;;;5044643;28;20059;-50
2022/09/04 15:44:43;;;;;;;6.07;2.10;;;;;;;;;;5050979;28;20041;-46
2022/09/04 15:47:22;;;;;;;7.97;2.22;;;;;;;;;;5042307;28;20381;-47
2022/09/04 15:50:03;;;;;;;11.52;2.63;;;;;;;;;;5047690;28;20028;-48
2022/09/04 15:52:39;;;;;;;8.52;3.13;;;;;;;;;;5053375;28;20047;-50
2022/09/04 15:55:07;;;;;;;3.85;2.08;;;;;;;;;;5050360;28;20033;-47
2022/09/04 15:57:45;;;;;;;8.52;2.03;;;;;;;;;;5040400;28;20054;-50
2022/09/04 16:00:14;;;;;;;7.80;2.33;;;;;;;;;;5049328;28;20032;-48
2022/09/04 16:02:52;;;;;;;4.88;2.47;;;;;;;;;;5056381;28;20033;-47
2022/09/04 16:05:40;;;;;;;11.13;2.47;;;;;;;;;;5052431;28;20051;-48
2022/09/04 16:08:22;;;;;;;11.52;2.70;;;;;;;;;;5054098;28;20040;-49
2022/09/04 16:11:05;;;;;;;8.43;2.25;;;;;;;;;;5052931;28;20027;-50
2022/09/04 16:13:44;;;;;;;7.78;2.67;;;;;;;;;;5049446;28;20373;-46
2022/09/04 16:16:16;;;;;;;9.18;2.90;;;;;;;;;;5042917;28;20025;-50
2022/09/04 16:18:49;;;;;;;10.88;2.78;;;;;;;;;;5051489;28;20113;-49
2022/09/04 16:22:10;;;;;;;8.07;2.40;;;;;;;;;;5052381;28;20025;-49
2022/09/04 16:24:46;;;;;;;11.50;2.80;;;;;;;;;;4992696;28;20121;-45
2022/09/04 16:27:19;;;;;;;6.65;2.40;;;;;;;;;;4989669;28;20048;-45
2022/09/04 16:29:49;;;;;;;10.15;2.17;;;;;;;;;;4992171;28;20041;-47
2022/09/04 16:32:26;;;;;;;9.90;2.70;;;;;;;;;;4995056;28;20406;-48